CheckWX is a tool to help pilots better visualize weather data.  It is not intended as a substitute for an official pre-flight weather briefing.

21:44:50 UTC

OMDB METAR
Dubai International Airport
Dubai, United Arab Emirates
Current

45 mins ago

OMDB 192100Z 10004KT 010V130 CAVOK 33/25 Q1005 NOSIG
Observed
Sep-19 @ 21:00 UTC
Wind
  • 100° at 4 KTS
Visibility
10,000+ meters
Flight Rules
VFR
Cloud Levels
  • Clear skies
Temperature
33°C / 91°F
Dewpoint
25°C / 77°F
Heat Index
40°C / 104°F
Humidity
63%
Altimeter
29.68" Hg
Pressure
1004.92 hPa
Previous

2 hours ago

OMDB 192000Z VRB04KT CAVOK 34/25 Q1005 NOSIG
Observed
Sep-19 @ 20:00 UTC
Wind
  • Variable at 4 KTS
Visibility
10,000+ meters
Flight Rules
VFR
Cloud Levels
  • Clear skies
Temperature
34°C / 93°F
Dewpoint
25°C / 77°F
Heat Index
42°C / 107°F
Humidity
59%
Altimeter
29.68" Hg
Pressure
1004.92 hPa
Previous

3 hours ago

OMDB 191900Z VRB04KT CAVOK 35/24 Q1005 NOSIG
Observed
Sep-19 @ 19:00 UTC
Wind
  • Variable at 4 KTS
Visibility
10,000+ meters
Flight Rules
VFR
Cloud Levels
  • Clear skies
Temperature
35°C / 95°F
Dewpoint
24°C / 75°F
Heat Index
42°C / 107°F
Humidity
53%
Altimeter
29.68" Hg
Pressure
1004.92 hPa